createdAt,value
2022-08-04T00:00:26.061Z,99985.25
2022-08-04T00:05:41.376Z,99975.69
2022-08-04T00:10:49.552Z,99983.31
2022-08-04T00:15:54.464Z,99985.94
2022-08-04T00:21:05.518Z,99984.69
2022-08-04T00:26:09.497Z,99980.88
2022-08-04T00:31:13.137Z,99982.03
2022-08-04T00:36:21.334Z,99978.78
2022-08-04T00:41:31.725Z,99983.19
2022-08-04T00:47:01.087Z,99982.63
2022-08-04T00:52:32.750Z,99977.91
2022-08-04T00:57:52.515Z,99979.91
2022-08-04T01:03:10.908Z,99981.53
2022-08-04T01:08:35.569Z,99973.84
2022-08-04T01:13:55.710Z,99972.41
2022-08-04T01:19:02.669Z,99976.06
2022-08-04T01:24:20.611Z,99974.59
2022-08-04T01:29:30.498Z,99976.47
2022-08-04T01:34:52.401Z,99974.19
2022-08-04T01:40:04.034Z,99971.19
2022-08-04T01:45:11.351Z,99974.59
2022-08-04T01:50:15.400Z,99974.31
2022-08-04T01:55:18.430Z,99968.59
2022-08-04T02:00:27.010Z,99963.16
2022-08-04T02:06:04.023Z,99962.78
2022-08-04T02:11:04.856Z,99969.88
2022-08-04T02:16:17.518Z,99966.88
2022-08-04T02:21:21.651Z,99973.47
2022-08-04T02:26:29.295Z,99970.53
2022-08-04T02:31:39.751Z,99965.66
2022-08-04T02:36:44.063Z,99962.94
2022-08-04T02:41:48.332Z,99954.63
2022-08-04T02:46:54.334Z,99954.97
2022-08-04T02:51:58.742Z,99961.19
2022-08-04T02:57:02.375Z,99961.63
2022-08-04T03:02:12.087Z,99958.47
2022-08-04T03:07:59.353Z,99946.47
2022-08-04T03:13:28.915Z,99955.59
2022-08-04T03:19:17.829Z,99960.03
2022-08-04T03:25:00.001Z,99960.75
2022-08-04T03:30:08.917Z,99963.59
2022-08-04T03:35:36.589Z,99956.47
2022-08-04T03:41:04.802Z,99965.75
2022-08-04T03:46:42.681Z,99973.03
2022-08-04T03:52:16.023Z,99963.34
2022-08-04T03:57:36.554Z,99962.47
2022-08-04T04:03:28.570Z,99962.94
2022-08-04T04:09:08.090Z,99958.94
2022-08-04T04:14:41.914Z,99960.34
2022-08-04T04:20:11.741Z,99964.81
2022-08-04T04:25:26.827Z,99960.22
2022-08-04T04:30:40.284Z,99966.78
2022-08-04T04:35:58.895Z,99964.06
2022-08-04T04:41:17.767Z,99970.22
2022-08-04T04:46:33.216Z,99971.94
2022-08-04T04:51:44.705Z,99976.50
2022-08-04T04:56:51.857Z,99974.78
2022-08-04T05:02:32.059Z,99971.19
2022-08-04T05:07:58.568Z,99979.06
2022-08-04T05:14:37.200Z,99975.91
2022-08-04T05:18:47.845Z,99981.47
2022-08-04T05:23:57.816Z,99984.78
2022-08-04T05:29:05.824Z,99971.78
2022-08-04T05:34:13.882Z,99985.19
2022-08-04T05:39:20.580Z,99982.66
2022-08-04T05:44:24.732Z,99974.09
2022-08-04T05:49:30.308Z,99977.06
2022-08-04T05:54:35.180Z,99976.34
2022-08-04T05:59:42.318Z,99973.50
2022-08-04T06:04:50.052Z,99978.66
2022-08-04T06:09:52.980Z,99981.63
2022-08-04T06:14:59.785Z,99988.38
2022-08-04T06:20:19.281Z,99989.78
2022-08-04T06:25:30.530Z,99993.81
2022-08-04T06:30:34.376Z,99996.53
2022-08-04T06:35:38.838Z,99985.09
2022-08-04T06:40:42.498Z,99983.91
2022-08-04T06:45:45.723Z,99992.63
2022-08-04T06:51:24.725Z,99979.63
2022-08-04T06:56:15.822Z,99986.63
2022-08-04T07:01:21.704Z,99981.19
2022-08-04T07:06:26.020Z,99982.72
2022-08-04T07:11:29.552Z,99980.56
2022-08-04T07:16:43.397Z,99979.66
2022-08-04T07:22:18.853Z,99980.38
2022-08-04T07:27:10.800Z,99987.94
2022-08-04T07:32:14.701Z,99978.94
2022-08-04T07:37:19.938Z,99977.75
2022-08-04T07:42:23.379Z,99984.78
2022-08-04T07:47:27.461Z,99977.47
2022-08-04T07:52:32.459Z,99977.16
2022-08-04T07:57:41.530Z,99974.88
2022-08-04T08:02:49.333Z,99968.59
2022-08-04T08:07:55.041Z,99972.03
2022-08-04T08:12:58.533Z,99966.28
2022-08-04T08:18:01.363Z,99965.69
2022-08-04T08:23:06.071Z,99963.69
2022-08-04T08:28:08.883Z,99963.81
2022-08-04T08:33:16.165Z,99957.06
2022-08-04T08:38:28.616Z,99960.66
2022-08-04T08:44:00.192Z,99958.34
2022-08-04T08:50:01.049Z,99954.94
2022-08-04T08:55:20.025Z,99954.94
2022-08-04T09:00:31.899Z,99962.22
2022-08-04T09:05:58.665Z,99957.31
2022-08-04T09:11:09.815Z,99962.59
2022-08-04T09:16:19.001Z,99949.88
2022-08-04T09:21:31.711Z,99953.47
2022-08-04T09:26:46.568Z,99956.47
2022-08-04T09:32:07.123Z,99945.75
2022-08-04T09:37:18.276Z,99948.03
2022-08-04T09:42:35.918Z,99949.56
2022-08-04T09:47:47.688Z,99950.25
2022-08-04T09:52:59.327Z,99942.09
2022-08-04T09:58:10.018Z,99941.25
2022-08-04T10:03:19.622Z,99940.97
2022-08-04T10:08:38.015Z,99929.75
2022-08-04T10:13:53.150Z,99933.03
2022-08-04T10:19:07.964Z,99927.44
2022-08-04T10:24:32.136Z,99928.16
2022-08-04T10:29:43.911Z,99925.13
2022-08-04T10:35:00.845Z,99915.09
2022-08-04T10:40:25.689Z,99903.94
2022-08-04T10:45:37.728Z,99905.78
2022-08-04T10:50:53.098Z,99900.19
2022-08-04T10:56:06.553Z,99901.03
2022-08-04T11:02:01.282Z,99891.56
2022-08-04T11:06:46.868Z,99887.66
2022-08-04T11:12:00.737Z,99881.94
2022-08-04T11:17:09.235Z,99893.53
2022-08-04T11:22:16.537Z,99885.38
2022-08-04T11:27:29.164Z,99882.34
2022-08-04T11:32:42.239Z,99891.19
2022-08-04T11:37:51.040Z,99878.91
2022-08-04T11:42:59.160Z,99873.19
2022-08-04T11:48:11.052Z,99877.28
2022-08-04T11:53:19.344Z,99873.56
2022-08-04T11:58:23.135Z,99870.28
2022-08-04T12:03:37.646Z,99863.69
2022-08-04T12:08:59.401Z,99862.13
2022-08-04T12:14:11.152Z,99863.31
2022-08-04T12:19:22.462Z,99858.91
2022-08-04T12:24:32.512Z,99856.19
2022-08-04T12:29:37.669Z,99857.16
2022-08-04T12:34:45.835Z,99847.47
2022-08-04T12:40:28.956Z,99854.44
2022-08-04T12:45:15.647Z,99847.00
2022-08-04T12:50:21.735Z,99838.69
2022-08-04T12:55:29.720Z,99830.56
2022-08-04T13:00:43.765Z,99839.16
2022-08-04T13:05:53.989Z,99839.16
2022-08-04T13:10:59.867Z,99821.34
2022-08-04T13:16:08.479Z,99816.75
2022-08-04T13:21:22.779Z,99809.63
2022-08-04T13:26:42.821Z,99807.59
2022-08-04T13:31:53.945Z,99805.56
2022-08-04T13:36:59.436Z,99805.22
2022-08-04T13:42:08.944Z,99798.25
2022-08-04T13:47:16.488Z,99791.13
2022-08-04T13:52:27.232Z,99792.81
2022-08-04T13:57:32.465Z,99782.78
2022-08-04T14:02:40.611Z,99781.78
2022-08-04T14:07:48.264Z,99768.88
2022-08-04T14:12:53.131Z,99768.19
2022-08-04T14:17:56.103Z,99773.97
2022-08-04T14:23:02.339Z,99763.44
2022-08-04T14:28:06.036Z,99767.53
2022-08-04T14:34:02.712Z,99763.97
2022-08-04T14:38:47.411Z,99767.22
2022-08-04T14:43:52.732Z,99758.03
2022-08-04T14:49:04.245Z,99753.47
2022-08-04T14:54:18.799Z,99752.13
2022-08-04T14:59:23.489Z,99746.22
2022-08-04T15:04:27.749Z,99729.53
2022-08-04T15:09:32.828Z,99731.94
2022-08-04T15:14:38.195Z,99727.72
2022-08-04T15:19:41.721Z,99725.19
2022-08-04T15:25:00.568Z,99725.22
2022-08-04T15:30:06.393Z,99720.16
2022-08-04T15:35:12.766Z,99717.81
2022-08-04T15:40:26.921Z,99705.56
2022-08-04T15:46:35.010Z,99694.03
2022-08-04T15:51:14.203Z,99701.50
2022-08-04T15:56:48.285Z,99686.56
2022-08-04T16:02:45.890Z,99695.25
2022-08-04T16:07:56.689Z,99702.75
2022-08-04T16:13:08.570Z,99692.38
2022-08-04T16:18:26.356Z,99692.03
2022-08-04T16:24:07.553Z,99686.56
2022-08-04T16:29:30.462Z,99686.25
2022-08-04T16:34:48.155Z,99690.34
2022-08-04T16:40:35.205Z,99680.50
2022-08-04T16:45:52.538Z,99686.13
2022-08-04T16:50:58.183Z,99681.34
2022-08-04T16:56:10.771Z,99683.56
2022-08-04T17:01:32.135Z,99679.47
2022-08-04T17:06:38.711Z,99675.88
2022-08-04T17:11:43.021Z,99674.34
2022-08-04T17:16:47.132Z,99663.81
2022-08-04T17:21:50.092Z,99661.75
2022-08-04T17:26:54.473Z,99663.63
2022-08-04T17:31:59.165Z,99666.19
2022-08-04T17:42:30.274Z,99658.69
2022-08-04T17:47:38.282Z,99654.59
2022-08-04T17:52:45.439Z,99656.47
2022-08-04T17:57:52.222Z,99657.66
2022-08-04T18:02:57.055Z,99661.41
2022-08-04T18:08:39.535Z,99657.16
2022-08-04T18:13:42.313Z,99657.84
2022-08-04T18:19:10.493Z,99656.47
2022-08-04T18:24:14.018Z,99661.91
2022-08-04T18:29:31.303Z,99658.50
2022-08-04T18:34:40.747Z,99659.00
2022-08-04T18:40:25.148Z,99655.25
2022-08-04T18:45:20.350Z,99666.34
2022-08-04T18:51:00.805Z,99671.47
2022-08-04T18:55:56.536Z,99668.56
2022-08-04T19:01:01.196Z,99669.22
2022-08-04T19:06:07.510Z,99663.28
2022-08-04T19:11:38.193Z,99668.19
2022-08-04T19:16:34.944Z,99667.19
2022-08-04T19:21:59.299Z,99667.19
2022-08-04T19:27:07.050Z,99676.72
2022-08-04T19:32:14.023Z,99680.66
2022-08-04T19:37:57.491Z,99673.84
2022-08-04T19:42:43.313Z,99683.50
2022-08-04T19:48:12.101Z,99681.13
2022-08-04T19:53:18.902Z,99690.00
2022-08-04T19:58:26.317Z,99692.91
2022-08-04T20:04:08.838Z,99694.75
2022-08-04T20:08:53.708Z,99695.81
2022-08-04T20:13:58.236Z,99689.69
2022-08-04T20:19:04.196Z,99700.59
2022-08-04T20:24:41.515Z,99695.81
2022-08-04T20:29:40.300Z,99708.59
2022-08-04T20:34:43.794Z,99693.09
2022-08-04T20:39:54.894Z,99692.41
2022-08-04T20:44:58.052Z,99698.03
2022-08-04T20:50:01.682Z,99699.06
2022-08-04T20:55:07.095Z,99694.47
2022-08-04T21:00:13.127Z,99689.69
2022-08-04T21:05:16.484Z,99690.22
2022-08-04T21:10:21.987Z,99688.66
2022-08-04T21:15:50.748Z,99698.72
2022-08-04T21:20:48.715Z,99693.09
2022-08-04T21:25:58.130Z,99688.34
2022-08-04T21:31:02.519Z,99688.50
2022-08-04T21:36:14.955Z,99682.19
2022-08-04T21:41:24.923Z,99681.84
2022-08-04T21:46:31.256Z,99677.91
2022-08-04T21:51:57.909Z,99679.81
2022-08-04T21:56:59.633Z,99676.56
2022-08-04T22:02:06.492Z,99678.75
2022-08-04T22:07:10.606Z,99684.03
2022-08-04T22:12:14.890Z,99687.09
2022-08-04T22:17:25.496Z,99692.22
2022-08-04T22:22:29.431Z,99686.41
2022-08-04T22:27:55.046Z,99681.81
2022-08-04T22:32:58.279Z,99684.53
2022-08-04T22:38:07.787Z,99684.72
2022-08-04T22:43:31.678Z,99687.63
2022-08-04T22:48:38.327Z,99680.63
2022-08-04T22:53:41.771Z,99678.75
2022-08-04T22:58:53.129Z,99677.91
2022-08-04T23:03:57.432Z,99680.81
2022-08-04T23:09:00.112Z,99672.09
2022-08-04T23:14:06.186Z,99671.78
2022-08-04T23:19:09.503Z,99673.84
2022-08-04T23:24:12.984Z,99673.16
2022-08-04T23:29:17.570Z,99699.06
2022-08-04T23:34:20.274Z,99692.44
2022-08-04T23:39:23.071Z,99692.41
2022-08-04T23:44:28.825Z,99696.16
2022-08-04T23:49:43.348Z,99697.88
2022-08-04T23:54:47.360Z,99691.22
2022-08-04T23:59:55.021Z,99706.88
